sensor_id;sensor_type;location;lat;lon;timestamp;P1;durP1;ratioP1;P2;durP2;ratioP2
75413;SDS011;64758;52.122;5.404;2023-08-12T00:00:02;2.50;;;2.28;;
75413;SDS011;64758;52.122;5.404;2023-08-12T00:02:38;3.15;;;2.20;;
75413;SDS011;64758;52.122;5.404;2023-08-12T00:05:06;3.63;;;2.05;;
75413;SDS011;64758;52.122;5.404;2023-08-12T00:07:33;4.27;;;2.27;;
75413;SDS011;64758;52.122;5.404;2023-08-12T00:10:01;3.15;;;2.10;;
75413;SDS011;64758;52.122;5.404;2023-08-12T00:12:33;2.90;;;2.05;;
75413;SDS011;64758;52.122;5.404;2023-08-12T00:15:01;3.72;;;2.38;;
75413;SDS011;64758;52.122;5.404;2023-08-12T00:17:29;2.78;;;1.98;;
75413;SDS011;64758;52.122;5.404;2023-08-12T00:19:55;5.80;;;3.03;;
75413;SDS011;64758;52.122;5.404;2023-08-12T00:22:22;4.75;;;2.80;;
75413;SDS011;64758;52.122;5.404;2023-08-12T00:24:49;3.00;;;2.45;;
75413;SDS011;64758;52.122;5.404;2023-08-12T00:27:15;5.60;;;2.95;;
75413;SDS011;64758;52.122;5.404;2023-08-12T00:29:42;8.70;;;3.50;;
75413;SDS011;64758;52.122;5.404;2023-08-12T00:32:09;4.80;;;3.00;;
75413;SDS011;64758;52.122;5.404;2023-08-12T00:34:36;4.85;;;3.00;;
75413;SDS011;64758;52.122;5.404;2023-08-12T00:37:02;5.63;;;3.03;;
75413;SDS011;64758;52.122;5.404;2023-08-12T00:39:29;5.38;;;2.38;;
75413;SDS011;64758;52.122;5.404;2023-08-12T00:41:55;5.47;;;2.60;;
75413;SDS011;64758;52.122;5.404;2023-08-12T00:44:22;3.80;;;2.73;;
75413;SDS011;64758;52.122;5.404;2023-08-12T00:46:49;5.25;;;2.75;;
75413;SDS011;64758;52.122;5.404;2023-08-12T00:49:16;4.70;;;2.75;;
75413;SDS011;64758;52.122;5.404;2023-08-12T00:51:44;7.57;;;3.30;;
75413;SDS011;64758;52.122;5.404;2023-08-12T00:54:13;4.63;;;3.08;;
75413;SDS011;64758;52.122;5.404;2023-08-12T00:56:40;3.77;;;2.83;;
75413;SDS011;64758;52.122;5.404;2023-08-12T00:59:08;5.15;;;3.05;;
75413;SDS011;64758;52.122;5.404;2023-08-12T01:01:35;6.00;;;2.92;;
75413;SDS011;64758;52.122;5.404;2023-08-12T01:04:05;4.88;;;2.85;;
75413;SDS011;64758;52.122;5.404;2023-08-12T01:06:32;4.55;;;3.20;;
75413;SDS011;64758;52.122;5.404;2023-08-12T01:08:59;6.43;;;3.83;;
75413;SDS011;64758;52.122;5.404;2023-08-12T01:14:06;4.50;;;3.35;;
75413;SDS011;64758;52.122;5.404;2023-08-12T01:16:54;5.72;;;3.42;;
75413;SDS011;64758;52.122;5.404;2023-08-12T01:19:30;4.38;;;3.20;;
75413;SDS011;64758;52.122;5.404;2023-08-12T01:22:01;5.93;;;3.57;;
75413;SDS011;64758;52.122;5.404;2023-08-12T01:24:38;4.20;;;3.58;;
75413;SDS011;64758;52.122;5.404;2023-08-12T01:27:07;7.30;;;3.70;;
75413;SDS011;64758;52.122;5.404;2023-08-12T01:29:39;5.72;;;3.38;;
75413;SDS011;64758;52.122;5.404;2023-08-12T01:32:12;5.28;;;3.65;;
75413;SDS011;64758;52.122;5.404;2023-08-12T01:34:47;5.53;;;3.53;;
75413;SDS011;64758;52.122;5.404;2023-08-12T01:37:27;7.93;;;4.90;;
75413;SDS011;64758;52.122;5.404;2023-08-12T01:39:55;4.78;;;3.50;;
75413;SDS011;64758;52.122;5.404;2023-08-12T01:42:25;6.28;;;3.90;;
75413;SDS011;64758;52.122;5.404;2023-08-12T01:44:52;6.47;;;3.30;;
75413;SDS011;64758;52.122;5.404;2023-08-12T01:47:19;6.43;;;3.80;;
75413;SDS011;64758;52.122;5.404;2023-08-12T01:49:45;4.97;;;3.30;;
75413;SDS011;64758;52.122;5.404;2023-08-12T01:52:12;4.68;;;3.47;;
75413;SDS011;64758;52.122;5.404;2023-08-12T01:54:39;5.65;;;3.22;;
75413;SDS011;64758;52.122;5.404;2023-08-12T01:57:05;6.70;;;3.88;;
75413;SDS011;64758;52.122;5.404;2023-08-12T01:59:33;5.57;;;4.00;;
75413;SDS011;64758;52.122;5.404;2023-08-12T02:02:00;6.13;;;3.92;;
75413;SDS011;64758;52.122;5.404;2023-08-12T02:04:27;6.88;;;3.80;;
75413;SDS011;64758;52.122;5.404;2023-08-12T02:06:54;5.97;;;4.28;;
75413;SDS011;64758;52.122;5.404;2023-08-12T02:09:21;6.55;;;4.50;;
75413;SDS011;64758;52.122;5.404;2023-08-12T02:11:49;5.83;;;3.97;;
75413;SDS011;64758;52.122;5.404;2023-08-12T02:14:16;7.13;;;3.95;;
75413;SDS011;64758;52.122;5.404;2023-08-12T02:16:42;7.53;;;4.05;;
75413;SDS011;64758;52.122;5.404;2023-08-12T02:19:09;8.00;;;3.92;;
75413;SDS011;64758;52.122;5.404;2023-08-12T02:21:35;9.98;;;4.72;;
75413;SDS011;64758;52.122;5.404;2023-08-12T02:24:02;7.80;;;5.13;;
75413;SDS011;64758;52.122;5.404;2023-08-12T02:26:29;6.72;;;4.60;;
75413;SDS011;64758;52.122;5.404;2023-08-12T02:28:56;9.57;;;4.93;;
75413;SDS011;64758;52.122;5.404;2023-08-12T02:31:23;5.80;;;4.63;;
75413;SDS011;64758;52.122;5.404;2023-08-12T02:33:50;7.95;;;4.80;;
75413;SDS011;64758;52.122;5.404;2023-08-12T02:36:16;7.17;;;4.90;;
75413;SDS011;64758;52.122;5.404;2023-08-12T02:38:43;6.72;;;4.85;;
75413;SDS011;64758;52.122;5.404;2023-08-12T02:41:10;7.03;;;5.03;;
75413;SDS011;64758;52.122;5.404;2023-08-12T02:43:36;7.35;;;4.68;;
75413;SDS011;64758;52.122;5.404;2023-08-12T02:46:03;6.07;;;4.30;;
75413;SDS011;64758;52.122;5.404;2023-08-12T02:48:29;6.27;;;4.70;;
75413;SDS011;64758;52.122;5.404;2023-08-12T02:50:56;7.82;;;5.30;;
75413;SDS011;64758;52.122;5.404;2023-08-12T02:53:23;9.15;;;5.18;;
75413;SDS011;64758;52.122;5.404;2023-08-12T02:55:49;7.05;;;4.70;;
75413;SDS011;64758;52.122;5.404;2023-08-12T02:58:16;6.90;;;4.35;;
75413;SDS011;64758;52.122;5.404;2023-08-12T03:00:42;7.93;;;4.60;;
75413;SDS011;64758;52.122;5.404;2023-08-12T03:03:10;8.35;;;4.97;;
75413;SDS011;64758;52.122;5.404;2023-08-12T03:05:36;7.20;;;4.63;;
75413;SDS011;64758;52.122;5.404;2023-08-12T03:08:03;6.97;;;4.90;;
75413;SDS011;64758;52.122;5.404;2023-08-12T03:10:30;9.10;;;5.50;;
75413;SDS011;64758;52.122;5.404;2023-08-12T03:12:59;7.87;;;5.37;;
75413;SDS011;64758;52.122;5.404;2023-08-12T03:15:25;7.35;;;5.20;;
75413;SDS011;64758;52.122;5.404;2023-08-12T03:17:52;7.90;;;5.88;;
75413;SDS011;64758;52.122;5.404;2023-08-12T03:20:19;9.52;;;5.53;;
75413;SDS011;64758;52.122;5.404;2023-08-12T03:22:45;13.48;;;7.35;;
75413;SDS011;64758;52.122;5.404;2023-08-12T03:25:12;12.13;;;7.20;;
75413;SDS011;64758;52.122;5.404;2023-08-12T03:27:41;12.52;;;7.40;;
75413;SDS011;64758;52.122;5.404;2023-08-12T03:30:08;14.38;;;7.45;;
75413;SDS011;64758;52.122;5.404;2023-08-12T03:32:35;10.18;;;6.45;;
75413;SDS011;64758;52.122;5.404;2023-08-12T03:35:02;12.45;;;7.40;;
75413;SDS011;64758;52.122;5.404;2023-08-12T03:37:30;13.80;;;6.27;;
75413;SDS011;64758;52.122;5.404;2023-08-12T03:39:56;12.32;;;6.90;;
75413;SDS011;64758;52.122;5.404;2023-08-12T03:42:23;14.50;;;7.55;;
75413;SDS011;64758;52.122;5.404;2023-08-12T03:44:50;8.63;;;5.75;;
75413;SDS011;64758;52.122;5.404;2023-08-12T03:47:16;11.15;;;6.65;;
75413;SDS011;64758;52.122;5.404;2023-08-12T03:49:48;10.63;;;6.63;;
75413;SDS011;64758;52.122;5.404;2023-08-12T03:52:14;8.70;;;6.03;;
75413;SDS011;64758;52.122;5.404;2023-08-12T03:54:41;13.00;;;7.82;;
75413;SDS011;64758;52.122;5.404;2023-08-12T03:57:07;9.85;;;6.75;;
75413;SDS011;64758;52.122;5.404;2023-08-12T03:59:34;8.38;;;5.80;;
75413;SDS011;64758;52.122;5.404;2023-08-12T04:02:01;8.03;;;6.17;;
75413;SDS011;64758;52.122;5.404;2023-08-12T04:04:27;9.00;;;6.95;;
75413;SDS011;64758;52.122;5.404;2023-08-12T04:06:54;10.88;;;6.75;;
75413;SDS011;64758;52.122;5.404;2023-08-12T04:09:20;11.02;;;6.68;;
75413;SDS011;64758;52.122;5.404;2023-08-12T04:11:47;10.73;;;7.07;;
75413;SDS011;64758;52.122;5.404;2023-08-12T04:14:14;9.43;;;6.23;;
75413;SDS011;64758;52.122;5.404;2023-08-12T04:16:40;8.25;;;6.15;;
75413;SDS011;64758;52.122;5.404;2023-08-12T04:19:07;9.68;;;7.28;;
75413;SDS011;64758;52.122;5.404;2023-08-12T04:21:34;13.23;;;8.50;;
75413;SDS011;64758;52.122;5.404;2023-08-12T04:24:01;13.85;;;8.30;;
75413;SDS011;64758;52.122;5.404;2023-08-12T04:26:27;17.17;;;9.83;;
75413;SDS011;64758;52.122;5.404;2023-08-12T04:28:54;16.38;;;10.15;;
75413;SDS011;64758;52.122;5.404;2023-08-12T04:31:20;20.05;;;10.57;;
75413;SDS011;64758;52.122;5.404;2023-08-12T04:33:47;19.27;;;10.45;;
75413;SDS011;64758;52.122;5.404;2023-08-12T04:36:15;18.25;;;10.18;;
75413;SDS011;64758;52.122;5.404;2023-08-12T04:38:42;16.40;;;10.97;;
75413;SDS011;64758;52.122;5.404;2023-08-12T04:41:08;20.55;;;10.93;;
75413;SDS011;64758;52.122;5.404;2023-08-12T04:43:35;18.88;;;11.00;;
75413;SDS011;64758;52.122;5.404;2023-08-12T04:46:02;17.25;;;10.70;;
75413;SDS011;64758;52.122;5.404;2023-08-12T04:48:28;19.83;;;10.95;;
75413;SDS011;64758;52.122;5.404;2023-08-12T04:50:57;19.33;;;11.00;;
75413;SDS011;64758;52.122;5.404;2023-08-12T04:53:27;17.08;;;10.70;;
75413;SDS011;64758;52.122;5.404;2023-08-12T04:55:54;18.50;;;10.80;;
75413;SDS011;64758;52.122;5.404;2023-08-12T04:58:21;14.60;;;10.43;;
75413;SDS011;64758;52.122;5.404;2023-08-12T05:00:48;14.07;;;10.40;;
75413;SDS011;64758;52.122;5.404;2023-08-12T05:03:15;19.13;;;10.07;;
75413;SDS011;64758;52.122;5.404;2023-08-12T05:05:41;17.83;;;10.02;;
75413;SDS011;64758;52.122;5.404;2023-08-12T05:08:08;15.27;;;9.15;;
75413;SDS011;64758;52.122;5.404;2023-08-12T05:10:34;15.15;;;9.57;;
75413;SDS011;64758;52.122;5.404;2023-08-12T05:13:01;13.70;;;9.82;;
75413;SDS011;64758;52.122;5.404;2023-08-12T05:15:28;14.63;;;9.27;;
75413;SDS011;64758;52.122;5.404;2023-08-12T05:17:55;16.30;;;9.52;;
75413;SDS011;64758;52.122;5.404;2023-08-12T05:20:21;14.30;;;9.68;;
75413;SDS011;64758;52.122;5.404;2023-08-12T05:22:48;11.93;;;9.35;;
75413;SDS011;64758;52.122;5.404;2023-08-12T05:25:15;14.73;;;9.10;;
75413;SDS011;64758;52.122;5.404;2023-08-12T05:27:41;14.40;;;8.90;;
75413;SDS011;64758;52.122;5.404;2023-08-12T05:30:08;13.68;;;8.68;;
75413;SDS011;64758;52.122;5.404;2023-08-12T05:32:35;12.93;;;8.48;;
75413;SDS011;64758;52.122;5.404;2023-08-12T05:35:01;14.75;;;9.10;;
75413;SDS011;64758;52.122;5.404;2023-08-12T05:37:28;15.52;;;9.48;;
75413;SDS011;64758;52.122;5.404;2023-08-12T05:39:54;14.33;;;9.07;;
75413;SDS011;64758;52.122;5.404;2023-08-12T05:42:21;15.63;;;8.88;;
75413;SDS011;64758;52.122;5.404;2023-08-12T05:44:47;17.05;;;9.38;;
75413;SDS011;64758;52.122;5.404;2023-08-12T05:47:14;14.05;;;8.85;;
75413;SDS011;64758;52.122;5.404;2023-08-12T05:49:41;18.77;;;10.40;;
75413;SDS011;64758;52.122;5.404;2023-08-12T05:52:08;13.47;;;8.33;;
75413;SDS011;64758;52.122;5.404;2023-08-12T05:54:36;15.15;;;9.15;;
75413;SDS011;64758;52.122;5.404;2023-08-12T05:57:02;13.18;;;8.30;;
75413;SDS011;64758;52.122;5.404;2023-08-12T05:59:29;11.93;;;9.20;;
75413;SDS011;64758;52.122;5.404;2023-08-12T06:01:55;11.90;;;9.07;;
75413;SDS011;64758;52.122;5.404;2023-08-12T06:04:22;12.57;;;9.63;;
75413;SDS011;64758;52.122;5.404;2023-08-12T06:06:49;16.30;;;9.48;;
75413;SDS011;64758;52.122;5.404;2023-08-12T06:09:15;14.50;;;9.73;;
75413;SDS011;64758;52.122;5.404;2023-08-12T06:11:42;13.85;;;9.10;;
75413;SDS011;64758;52.122;5.404;2023-08-12T06:14:08;12.60;;;9.10;;
75413;SDS011;64758;52.122;5.404;2023-08-12T06:16:35;11.83;;;8.90;;
75413;SDS011;64758;52.122;5.404;2023-08-12T06:19:01;15.02;;;8.63;;
75413;SDS011;64758;52.122;5.404;2023-08-12T06:21:28;15.77;;;9.07;;
75413;SDS011;64758;52.122;5.404;2023-08-12T06:23:55;12.95;;;8.45;;
75413;SDS011;64758;52.122;5.404;2023-08-12T06:26:22;15.63;;;8.88;;
75413;SDS011;64758;52.122;5.404;2023-08-12T06:28:48;12.13;;;8.97;;
75413;SDS011;64758;52.122;5.404;2023-08-12T06:31:15;14.38;;;8.38;;
75413;SDS011;64758;52.122;5.404;2023-08-12T06:33:42;12.15;;;7.75;;
75413;SDS011;64758;52.122;5.404;2023-08-12T06:36:08;10.85;;;7.63;;
75413;SDS011;64758;52.122;5.404;2023-08-12T06:38:35;9.95;;;6.75;;
75413;SDS011;64758;52.122;5.404;2023-08-12T06:41:02;11.20;;;6.50;;
75413;SDS011;64758;52.122;5.404;2023-08-12T06:43:28;10.60;;;6.10;;
75413;SDS011;64758;52.122;5.404;2023-08-12T06:45:55;8.93;;;5.13;;
75413;SDS011;64758;52.122;5.404;2023-08-12T06:48:22;13.52;;;5.28;;
75413;SDS011;64758;52.122;5.404;2023-08-12T06:50:55;8.93;;;5.15;;
75413;SDS011;64758;52.122;5.404;2023-08-12T06:53:22;6.03;;;5.03;;
75413;SDS011;64758;52.122;5.404;2023-08-12T06:55:49;6.50;;;4.70;;
75413;SDS011;64758;52.122;5.404;2023-08-12T06:58:15;5.88;;;4.43;;
75413;SDS011;64758;52.122;5.404;2023-08-12T07:00:42;7.85;;;4.75;;
75413;SDS011;64758;52.122;5.404;2023-08-12T07:03:09;5.95;;;3.97;;
75413;SDS011;64758;52.122;5.404;2023-08-12T07:05:35;4.90;;;3.60;;
75413;SDS011;64758;52.122;5.404;2023-08-12T07:08:02;5.97;;;3.90;;
75413;SDS011;64758;52.122;5.404;2023-08-12T07:10:29;6.13;;;3.63;;
75413;SDS011;64758;52.122;5.404;2023-08-12T07:12:55;4.95;;;3.70;;
75413;SDS011;64758;52.122;5.404;2023-08-12T07:15:22;4.95;;;4.07;;
75413;SDS011;64758;52.122;5.404;2023-08-12T07:17:49;4.97;;;2.90;;
75413;SDS011;64758;52.122;5.404;2023-08-12T07:20:15;6.47;;;3.10;;
75413;SDS011;64758;52.122;5.404;2023-08-12T07:22:42;4.30;;;3.05;;
75413;SDS011;64758;52.122;5.404;2023-08-12T07:25:08;3.85;;;2.85;;
75413;SDS011;64758;52.122;5.404;2023-08-12T07:27:35;3.08;;;2.67;;
75413;SDS011;64758;52.122;5.404;2023-08-12T07:30:02;4.40;;;2.63;;
75413;SDS011;64758;52.122;5.404;2023-08-12T07:32:29;4.05;;;3.10;;
75413;SDS011;64758;52.122;5.404;2023-08-12T07:34:56;7.22;;;2.95;;
75413;SDS011;64758;52.122;5.404;2023-08-12T07:37:22;3.50;;;2.80;;
75413;SDS011;64758;52.122;5.404;2023-08-12T07:39:49;3.92;;;2.33;;
75413;SDS011;64758;52.122;5.404;2023-08-12T07:42:15;4.33;;;3.17;;
75413;SDS011;64758;52.122;5.404;2023-08-12T07:44:42;7.20;;;3.08;;
75413;SDS011;64758;52.122;5.404;2023-08-12T07:47:09;5.07;;;3.10;;
75413;SDS011;64758;52.122;5.404;2023-08-12T07:49:35;4.03;;;3.63;;
75413;SDS011;64758;52.122;5.404;2023-08-12T07:52:02;3.05;;;2.75;;
75413;SDS011;64758;52.122;5.404;2023-08-12T07:54:28;2.93;;;2.63;;
75413;SDS011;64758;52.122;5.404;2023-08-12T07:56:55;3.92;;;3.05;;
75413;SDS011;64758;52.122;5.404;2023-08-12T07:59:21;3.10;;;2.53;;
75413;SDS011;64758;52.122;5.404;2023-08-12T08:01:48;3.90;;;2.58;;
75413;SDS011;64758;52.122;5.404;2023-08-12T08:04:14;3.10;;;2.72;;
75413;SDS011;64758;52.122;5.404;2023-08-12T08:06:41;3.93;;;2.90;;
75413;SDS011;64758;52.122;5.404;2023-08-12T08:09:07;4.15;;;2.40;;
75413;SDS011;64758;52.122;5.404;2023-08-12T08:11:34;6.13;;;2.50;;
75413;SDS011;64758;52.122;5.404;2023-08-12T08:14:01;3.05;;;2.50;;
75413;SDS011;64758;52.122;5.404;2023-08-12T08:16:27;2.75;;;2.30;;
75413;SDS011;64758;52.122;5.404;2023-08-12T08:18:54;3.57;;;2.23;;
75413;SDS011;64758;52.122;5.404;2023-08-12T08:21:21;3.10;;;1.88;;
75413;SDS011;64758;52.122;5.404;2023-08-12T08:23:47;3.90;;;2.00;;
75413;SDS011;64758;52.122;5.404;2023-08-12T08:26:14;2.17;;;1.75;;
75413;SDS011;64758;52.122;5.404;2023-08-12T08:28:42;2.00;;;1.70;;
75413;SDS011;64758;52.122;5.404;2023-08-12T08:31:09;3.97;;;1.67;;
75413;SDS011;64758;52.122;5.404;2023-08-12T08:33:35;3.83;;;2.00;;
75413;SDS011;64758;52.122;5.404;2023-08-12T08:36:02;2.00;;;1.75;;
75413;SDS011;64758;52.122;5.404;2023-08-12T08:38:29;2.28;;;1.70;;
75413;SDS011;64758;52.122;5.404;2023-08-12T08:40:55;1.92;;;1.40;;
75413;SDS011;64758;52.122;5.404;2023-08-12T08:43:24;2.33;;;1.50;;
75413;SDS011;64758;52.122;5.404;2023-08-12T08:45:53;3.08;;;1.55;;
75413;SDS011;64758;52.122;5.404;2023-08-12T08:48:20;1.45;;;1.20;;
75413;SDS011;64758;52.122;5.404;2023-08-12T08:50:47;1.50;;;1.00;;
75413;SDS011;64758;52.122;5.404;2023-08-12T08:53:15;1.75;;;0.95;;
75413;SDS011;64758;52.122;5.404;2023-08-12T08:55:42;1.20;;;0.63;;
75413;SDS011;64758;52.122;5.404;2023-08-12T08:58:10;1.13;;;0.70;;
75413;SDS011;64758;52.122;5.404;2023-08-12T09:00:46;0.90;;;0.55;;
75413;SDS011;64758;52.122;5.404;2023-08-12T09:03:13;0.90;;;0.57;;
75413;SDS011;64758;52.122;5.404;2023-08-12T09:05:40;2.00;;;0.70;;
75413;SDS011;64758;52.122;5.404;2023-08-12T09:08:08;2.57;;;0.77;;
75413;SDS011;64758;52.122;5.404;2023-08-12T09:10:38;1.10;;;0.70;;
75413;SDS011;64758;52.122;5.404;2023-08-12T09:13:06;2.50;;;0.60;;
75413;SDS011;64758;52.122;5.404;2023-08-12T09:15:35;2.20;;;0.60;;
75413;SDS011;64758;52.122;5.404;2023-08-12T09:18:03;2.63;;;0.80;;
75413;SDS011;64758;52.122;5.404;2023-08-12T09:20:35;3.53;;;0.73;;
75413;SDS011;64758;52.122;5.404;2023-08-12T09:23:02;3.47;;;0.60;;
75413;SDS011;64758;52.122;5.404;2023-08-12T09:25:29;2.78;;;0.80;;
75413;SDS011;64758;52.122;5.404;2023-08-12T09:27:58;1.40;;;0.60;;
75413;SDS011;64758;52.122;5.404;2023-08-12T09:30:27;5.03;;;1.00;;
75413;SDS011;64758;52.122;5.404;2023-08-12T09:33:02;1.23;;;0.40;;
75413;SDS011;64758;52.122;5.404;2023-08-12T09:35:31;3.92;;;0.93;;
75413;SDS011;64758;52.122;5.404;2023-08-12T09:38:03;3.45;;;0.90;;
75413;SDS011;64758;52.122;5.404;2023-08-12T09:40:32;5.25;;;1.40;;
75413;SDS011;64758;52.122;5.404;2023-08-12T09:43:01;4.30;;;1.10;;
75413;SDS011;64758;52.122;5.404;2023-08-12T09:45:29;2.37;;;0.77;;
75413;SDS011;64758;52.122;5.404;2023-08-12T09:47:57;3.05;;;0.80;;
75413;SDS011;64758;52.122;5.404;2023-08-12T09:50:24;3.90;;;0.70;;
75413;SDS011;64758;52.122;5.404;2023-08-12T09:52:53;4.18;;;1.00;;
75413;SDS011;64758;52.122;5.404;2023-08-12T09:55:21;3.47;;;0.75;;
75413;SDS011;64758;52.122;5.404;2023-08-12T09:57:53;11.17;;;1.27;;
75413;SDS011;64758;52.122;5.404;2023-08-12T10:00:21;2.75;;;0.65;;
75413;SDS011;64758;52.122;5.404;2023-08-12T10:02:49;5.45;;;1.10;;
75413;SDS011;64758;52.122;5.404;2023-08-12T10:05:22;5.35;;;1.20;;
75413;SDS011;64758;52.122;5.404;2023-08-12T10:07:52;5.75;;;1.13;;
75413;SDS011;64758;52.122;5.404;2023-08-12T10:10:22;4.80;;;1.23;;
75413;SDS011;64758;52.122;5.404;2023-08-12T10:12:49;6.47;;;1.15;;
75413;SDS011;64758;52.122;5.404;2023-08-12T10:15:16;5.03;;;0.93;;
75413;SDS011;64758;52.122;5.404;2023-08-12T10:17:43;2.53;;;1.05;;
75413;SDS011;64758;52.122;5.404;2023-08-12T10:20:14;2.97;;;0.90;;
75413;SDS011;64758;52.122;5.404;2023-08-12T10:22:46;3.60;;;1.00;;
75413;SDS011;64758;52.122;5.404;2023-08-12T10:25:13;3.97;;;0.95;;
75413;SDS011;64758;52.122;5.404;2023-08-12T10:27:40;3.80;;;0.80;;
75413;SDS011;64758;52.122;5.404;2023-08-12T10:30:07;4.28;;;0.93;;
75413;SDS011;64758;52.122;5.404;2023-08-12T10:32:35;4.43;;;0.98;;
75413;SDS011;64758;52.122;5.404;2023-08-12T10:35:02;3.70;;;1.00;;
75413;SDS011;64758;52.122;5.404;2023-08-12T10:37:31;5.82;;;1.83;;
75413;SDS011;64758;52.122;5.404;2023-08-12T10:40:05;5.47;;;0.88;;
75413;SDS011;64758;52.122;5.404;2023-08-12T10:42:45;2.75;;;0.85;;
75413;SDS011;64758;52.122;5.404;2023-08-12T10:45:14;3.47;;;1.00;;
75413;SDS011;64758;52.122;5.404;2023-08-12T10:48:28;2.47;;;0.80;;
75413;SDS011;64758;52.122;5.404;2023-08-12T10:50:30;5.45;;;1.05;;
75413;SDS011;64758;52.122;5.404;2023-08-12T10:52:57;4.95;;;1.05;;
75413;SDS011;64758;52.122;5.404;2023-08-12T10:55:24;5.18;;;1.27;;
75413;SDS011;64758;52.122;5.404;2023-08-12T10:57:53;5.53;;;1.13;;
75413;SDS011;64758;52.122;5.404;2023-08-12T11:00:23;2.27;;;1.10;;
75413;SDS011;64758;52.122;5.404;2023-08-12T11:02:52;4.93;;;1.05;;
75413;SDS011;64758;52.122;5.404;2023-08-12T11:05:20;6.32;;;1.30;;
75413;SDS011;64758;52.122;5.404;2023-08-12T11:07:56;4.60;;;1.35;;
75413;SDS011;64758;52.122;5.404;2023-08-12T11:10:26;4.68;;;1.05;;
75413;SDS011;64758;52.122;5.404;2023-08-12T11:12:56;3.47;;;0.93;;
75413;SDS011;64758;52.122;5.404;2023-08-12T11:15:37;4.13;;;1.02;;
75413;SDS011;64758;52.122;5.404;2023-08-12T11:18:09;4.75;;;0.95;;
75413;SDS011;64758;52.122;5.404;2023-08-12T11:20:37;6.70;;;1.30;;
75413;SDS011;64758;52.122;5.404;2023-08-12T11:23:05;4.47;;;1.20;;
75413;SDS011;64758;52.122;5.404;2023-08-12T11:25:33;5.10;;;0.80;;
75413;SDS011;64758;52.122;5.404;2023-08-12T11:28:01;5.72;;;1.30;;
75413;SDS011;64758;52.122;5.404;2023-08-12T11:30:28;5.07;;;1.50;;
75413;SDS011;64758;52.122;5.404;2023-08-12T11:32:59;7.97;;;0.88;;
75413;SDS011;64758;52.122;5.404;2023-08-12T11:35:27;1.95;;;0.77;;
75413;SDS011;64758;52.122;5.404;2023-08-12T11:37:56;6.37;;;1.33;;
75413;SDS011;64758;52.122;5.404;2023-08-12T11:40:24;3.00;;;0.80;;
75413;SDS011;64758;52.122;5.404;2023-08-12T11:42:53;5.15;;;0.80;;
75413;SDS011;64758;52.122;5.404;2023-08-12T11:45:22;2.63;;;0.88;;
75413;SDS011;64758;52.122;5.404;2023-08-12T11:47:50;5.28;;;0.88;;
75413;SDS011;64758;52.122;5.404;2023-08-12T11:50:23;3.83;;;0.90;;
75413;SDS011;64758;52.122;5.404;2023-08-12T11:52:51;5.45;;;1.20;;
75413;SDS011;64758;52.122;5.404;2023-08-12T11:55:19;3.15;;;1.20;;
75413;SDS011;64758;52.122;5.404;2023-08-12T11:57:46;5.78;;;1.00;;
75413;SDS011;64758;52.122;5.404;2023-08-12T12:00:13;2.10;;;0.88;;
75413;SDS011;64758;52.122;5.404;2023-08-12T12:02:45;6.93;;;1.30;;
75413;SDS011;64758;52.122;5.404;2023-08-12T12:05:17;5.13;;;1.40;;
75413;SDS011;64758;52.122;5.404;2023-08-12T12:07:50;5.85;;;2.00;;
75413;SDS011;64758;52.122;5.404;2023-08-12T12:10:27;4.68;;;1.52;;
75413;SDS011;64758;52.122;5.404;2023-08-12T12:13:00;4.30;;;1.55;;
75413;SDS011;64758;52.122;5.404;2023-08-12T12:15:27;5.30;;;0.97;;
75413;SDS011;64758;52.122;5.404;2023-08-12T12:17:54;5.82;;;1.52;;
75413;SDS011;64758;52.122;5.404;2023-08-12T12:20:21;4.47;;;1.05;;
75413;SDS011;64758;52.122;5.404;2023-08-12T12:22:48;12.27;;;1.52;;
75413;SDS011;64758;52.122;5.404;2023-08-12T12:25:15;5.60;;;1.08;;
75413;SDS011;64758;52.122;5.404;2023-08-12T12:27:45;5.20;;;0.90;;
75413;SDS011;64758;52.122;5.404;2023-08-12T12:30:13;3.28;;;1.00;;
75413;SDS011;64758;52.122;5.404;2023-08-12T12:32:41;3.72;;;1.10;;
75413;SDS011;64758;52.122;5.404;2023-08-12T12:35:07;3.10;;;0.90;;
75413;SDS011;64758;52.122;5.404;2023-08-12T12:37:35;3.33;;;0.82;;
75413;SDS011;64758;52.122;5.404;2023-08-12T12:40:02;4.63;;;0.77;;
75413;SDS011;64758;52.122;5.404;2023-08-12T12:42:30;6.57;;;1.00;;
75413;SDS011;64758;52.122;5.404;2023-08-12T12:44:57;3.80;;;0.77;;
75413;SDS011;64758;52.122;5.404;2023-08-12T12:47:23;4.60;;;0.80;;
75413;SDS011;64758;52.122;5.404;2023-08-12T12:49:50;4.22;;;0.95;;
75413;SDS011;64758;52.122;5.404;2023-08-12T12:52:17;4.23;;;0.93;;
75413;SDS011;64758;52.122;5.404;2023-08-12T12:54:43;4.97;;;0.80;;
75413;SDS011;64758;52.122;5.404;2023-08-12T12:57:10;4.80;;;0.88;;
75413;SDS011;64758;52.122;5.404;2023-08-12T12:59:36;6.28;;;1.02;;
75413;SDS011;64758;52.122;5.404;2023-08-12T13:02:03;2.95;;;0.77;;
75413;SDS011;64758;52.122;5.404;2023-08-12T13:04:29;7.57;;;1.03;;
75413;SDS011;64758;52.122;5.404;2023-08-12T13:06:56;4.90;;;1.00;;
75413;SDS011;64758;52.122;5.404;2023-08-12T13:09:23;5.43;;;0.90;;
75413;SDS011;64758;52.122;5.404;2023-08-12T13:11:49;2.35;;;0.60;;
75413;SDS011;64758;52.122;5.404;2023-08-12T13:14:16;4.43;;;1.10;;
75413;SDS011;64758;52.122;5.404;2023-08-12T13:16:45;3.53;;;0.70;;
75413;SDS011;64758;52.122;5.404;2023-08-12T13:19:12;5.03;;;1.00;;
75413;SDS011;64758;52.122;5.404;2023-08-12T13:21:38;5.82;;;1.20;;
75413;SDS011;64758;52.122;5.404;2023-08-12T13:24:05;4.07;;;0.90;;
75413;SDS011;64758;52.122;5.404;2023-08-12T13:26:31;4.30;;;0.98;;
75413;SDS011;64758;52.122;5.404;2023-08-12T13:28:58;5.83;;;1.00;;
75413;SDS011;64758;52.122;5.404;2023-08-12T13:31:24;4.57;;;1.00;;
75413;SDS011;64758;52.122;5.404;2023-08-12T13:33:52;4.07;;;0.90;;
75413;SDS011;64758;52.122;5.404;2023-08-12T13:36:18;3.42;;;0.88;;
75413;SDS011;64758;52.122;5.404;2023-08-12T13:38:45;4.20;;;1.10;;
75413;SDS011;64758;52.122;5.404;2023-08-12T13:41:11;5.20;;;0.97;;
75413;SDS011;64758;52.122;5.404;2023-08-12T13:43:38;5.47;;;1.00;;
75413;SDS011;64758;52.122;5.404;2023-08-12T13:46:05;4.03;;;0.90;;
75413;SDS011;64758;52.122;5.404;2023-08-12T13:48:31;4.63;;;0.90;;
75413;SDS011;64758;52.122;5.404;2023-08-12T13:50:58;5.15;;;0.70;;
75413;SDS011;64758;52.122;5.404;2023-08-12T13:53:27;5.13;;;0.90;;
75413;SDS011;64758;52.122;5.404;2023-08-12T13:55:54;4.95;;;1.08;;
75413;SDS011;64758;52.122;5.404;2023-08-12T13:58:20;6.43;;;0.73;;
75413;SDS011;64758;52.122;5.404;2023-08-12T14:00:47;10.15;;;1.20;;
75413;SDS011;64758;52.122;5.404;2023-08-12T14:03:14;3.90;;;0.98;;
75413;SDS011;64758;52.122;5.404;2023-08-12T14:05:41;4.27;;;0.83;;
75413;SDS011;64758;52.122;5.404;2023-08-12T14:08:08;4.95;;;1.30;;
75413;SDS011;64758;52.122;5.404;2023-08-12T14:10:35;3.80;;;0.93;;
75413;SDS011;64758;52.122;5.404;2023-08-12T14:13:01;3.35;;;0.95;;
75413;SDS011;64758;52.122;5.404;2023-08-12T14:15:28;3.95;;;0.77;;
75413;SDS011;64758;52.122;5.404;2023-08-12T14:17:54;4.13;;;0.70;;
75413;SDS011;64758;52.122;5.404;2023-08-12T14:20:21;4.18;;;1.02;;
75413;SDS011;64758;52.122;5.404;2023-08-12T14:22:48;4.72;;;1.10;;
75413;SDS011;64758;52.122;5.404;2023-08-12T14:25:14;7.40;;;1.25;;
75413;SDS011;64758;52.122;5.404;2023-08-12T14:27:41;6.20;;;1.25;;
75413;SDS011;64758;52.122;5.404;2023-08-12T14:30:08;6.83;;;1.30;;
75413;SDS011;64758;52.122;5.404;2023-08-12T14:32:35;4.90;;;1.10;;
75413;SDS011;64758;52.122;5.404;2023-08-12T14:35:02;7.45;;;1.40;;
75413;SDS011;64758;52.122;5.404;2023-08-12T14:37:30;6.63;;;1.33;;
75413;SDS011;64758;52.122;5.404;2023-08-12T14:39:56;5.65;;;1.23;;
75413;SDS011;64758;52.122;5.404;2023-08-12T14:42:23;6.10;;;0.93;;
75413;SDS011;64758;52.122;5.404;2023-08-12T14:44:49;4.82;;;1.13;;
75413;SDS011;64758;52.122;5.404;2023-08-12T14:47:16;4.68;;;1.42;;